Time;durP1;ratioP1;P1;durP2;ratioP2;P2;SDS_P1;SDS_P2;PMS_P1;PMS_P2;Temp;Humidity;BMP_temperature;BMP_pressure;BME280_temperature;BME280_humidity;BME280_pressure;Samples;Min_cycle;Max_cycle;Signal;HPM_P1;HPM_P2
2021/09/15 00:02:20;;;;;;;10.20;8.30;;;20.90;99.90;;;;;;5055934;28;20599;-83
2021/09/15 00:04:46;;;;;;;10.37;8.17;;;20.90;99.90;;;;;;5052700;28;20190;-84
2021/09/15 00:07:11;;;;;;;11.27;8.37;;;20.90;99.90;;;;;;5057744;28;20210;-84
2021/09/15 00:09:47;;;;;;;12.77;8.70;;;20.90;99.90;;;;;;5053513;28;20255;-84
2021/09/15 00:12:12;;;;;;;10.50;8.37;;;21.00;99.90;;;;;;5041784;28;20280;-85
2021/09/15 00:14:38;;;;;;;11.20;8.60;;;20.90;99.90;;;;;;5042037;28;20521;-89
2021/09/15 00:17:04;;;;;;;10.80;8.43;;;20.90;99.90;;;;;;5043377;28;20169;-86
2021/09/15 00:19:29;;;;;;;10.60;8.40;;;20.90;99.90;;;;;;5045048;28;20182;-91
2021/09/15 00:21:55;;;;;;;13.00;9.03;;;20.90;99.90;;;;;;5044769;28;20244;-87
2021/09/15 00:24:21;;;;;;;11.33;8.90;;;20.90;99.90;;;;;;5045059;28;20204;-87
2021/09/15 00:26:47;;;;;;;12.67;8.60;;;21.00;99.90;;;;;;5043763;28;20356;-89
2021/09/15 00:29:13;;;;;;;10.77;9.20;;;21.00;99.90;;;;;;5045825;28;20591;-86
2021/09/15 00:31:38;;;;;;;10.93;8.97;;;21.00;99.90;;;;;;5042823;28;20221;-90
2021/09/15 00:34:06;;;;;;;12.90;9.43;;;21.00;99.90;;;;;;5042954;28;20169;-87
2021/09/15 00:36:32;;;;;;;12.37;9.40;;;21.00;99.90;;;;;;5040133;28;20173;-85
2021/09/15 00:38:59;;;;;;;11.60;9.20;;;21.20;99.90;;;;;;5039731;28;20178;-88
2021/09/15 00:41:28;;;;;;;11.10;8.90;;;21.10;99.90;;;;;;5042956;28;20304;-90
2021/09/15 00:44:08;;;;;;;12.80;9.87;;;21.20;99.90;;;;;;5059365;28;20170;-86
2021/09/15 00:46:40;;;;;;;11.17;9.03;;;21.10;99.90;;;;;;5059689;28;20181;-86
2021/09/15 00:49:11;;;;;;;11.23;8.93;;;21.10;99.90;;;;;;5059053;28;20158;-86
2021/09/15 00:51:40;;;;;;;11.27;9.47;;;21.10;99.90;;;;;;5056843;28;20767;-85
2021/09/15 00:54:10;;;;;;;12.13;9.90;;;21.20;99.90;;;;;;5058830;28;20170;-85
2021/09/15 00:56:40;;;;;;;11.03;9.53;;;21.30;99.90;;;;;;5059383;28;20233;-85
2021/09/15 00:59:06;;;;;;;13.77;9.80;;;21.30;99.90;;;;;;5058412;28;20256;-85
2021/09/15 01:01:33;;;;;;;11.43;9.27;;;21.30;99.90;;;;;;5053694;28;20207;-88
2021/09/15 01:04:00;;;;;;;11.73;9.23;;;21.30;99.90;;;;;;5027539;28;20661;-85
2021/09/15 01:06:28;;;;;;;10.13;9.13;;;21.50;99.90;;;;;;5052323;28;20178;-85
2021/09/15 01:08:55;;;;;;;13.20;9.80;;;21.50;99.90;;;;;;5054667;28;20178;-89
2021/09/15 01:11:21;;;;;;;11.70;9.93;;;21.50;99.90;;;;;;5047940;28;20644;-85
2021/09/15 01:13:47;;;;;;;12.00;9.73;;;21.50;99.90;;;;;;5036580;28;20684;-85
2021/09/15 01:16:15;;;;;;;11.97;9.50;;;21.60;99.90;;;;;;5036148;28;20170;-89
2021/09/15 01:18:44;;;;;;;11.50;10.30;;;21.60;99.90;;;;;;5036420;28;20225;-88
2021/09/15 01:21:15;;;;;;;10.33;9.30;;;21.60;99.90;;;;;;5037355;28;20216;-90
2021/09/15 01:23:44;;;;;;;11.83;10.33;;;21.60;99.90;;;;;;5036368;28;20211;-89
2021/09/15 01:26:13;;;;;;;10.97;9.23;;;21.60;99.90;;;;;;5035100;28;20253;-90
2021/09/15 01:28:42;;;;;;;11.13;9.93;;;21.60;99.90;;;;;;5034957;28;20182;-87
2021/09/15 01:31:07;;;;;;;11.43;10.23;;;21.70;99.90;;;;;;5034557;28;20174;-86
2021/09/15 01:33:33;;;;;;;12.70;10.57;;;21.80;99.90;;;;;;5035582;28;20555;-88
2021/09/15 01:35:59;;;;;;;11.80;10.47;;;21.80;99.90;;;;;;5035073;28;20178;-84
2021/09/15 01:38:24;;;;;;;12.80;9.60;;;21.70;99.90;;;;;;5038655;28;20269;-87
2021/09/15 01:40:50;;;;;;;15.87;10.70;;;21.80;99.90;;;;;;5036152;28;20187;-85
2021/09/15 01:43:16;;;;;;;10.80;9.70;;;21.90;99.90;;;;;;5037988;28;20477;-85
2021/09/15 01:45:43;;;;;;;15.53;10.07;;;21.80;99.90;;;;;;5034122;28;20692;-83
2021/09/15 01:48:09;;;;;;;13.40;10.60;;;21.70;99.90;;;;;;5043784;28;20703;-83
2021/09/15 01:50:34;;;;;;;12.20;9.97;;;21.70;99.90;;;;;;5033177;28;20222;-84
2021/09/15 01:53:00;;;;;;;13.07;10.20;;;21.70;99.90;;;;;;5032977;28;20169;-84
2021/09/15 01:55:28;;;;;;;13.43;10.00;;;21.80;99.90;;;;;;5051218;28;20170;-85
2021/09/15 01:57:54;;;;;;;11.63;9.80;;;21.80;99.90;;;;;;5050398;28;20170;-83
2021/09/15 02:00:20;;;;;;;12.23;9.87;;;21.70;99.90;;;;;;5048551;28;20194;-91
2021/09/15 02:02:48;;;;;;;12.60;9.50;;;21.80;99.90;;;;;;5048130;28;20176;-87
2021/09/15 02:05:17;;;;;;;11.60;10.20;;;21.80;99.90;;;;;;5043993;28;20246;-88
2021/09/15 02:07:46;;;;;;;15.00;10.00;;;21.80;99.90;;;;;;5045152;28;20211;-87
2021/09/15 02:10:12;;;;;;;13.70;10.13;;;21.80;99.90;;;;;;5045063;28;20170;-87
2021/09/15 02:12:39;;;;;;;12.00;10.73;;;21.70;99.90;;;;;;5042852;28;20616;-89
2021/09/15 02:15:10;;;;;;;14.17;11.07;;;21.80;99.90;;;;;;5035002;28;20186;-90
2021/09/15 02:17:35;;;;;;;13.13;11.00;;;21.80;99.90;;;;;;5034541;28;20236;-90
2021/09/15 02:20:02;;;;;;;12.73;11.03;;;21.90;99.90;;;;;;5046432;28;20162;-82
2021/09/15 02:22:28;;;;;;;11.90;10.67;;;21.70;99.90;;;;;;5057157;28;20169;-83
2021/09/15 02:24:54;;;;;;;15.20;10.73;;;21.50;99.90;;;;;;5057974;28;20173;-86
2021/09/15 02:27:19;;;;;;;13.07;11.37;;;21.40;99.90;;;;;;5057184;28;20228;-84
2021/09/15 02:29:45;;;;;;;12.83;10.60;;;21.20;99.90;;;;;;5045240;28;20282;-86
2021/09/15 02:32:19;;;;;;;14.40;11.27;;;21.20;99.90;;;;;;5035845;28;20618;-89
2021/09/15 02:34:49;;;;;;;12.30;11.03;;;21.20;99.90;;;;;;5035646;28;20215;-88
2021/09/15 02:37:16;;;;;;;15.93;11.30;;;21.30;99.90;;;;;;5035168;28;20171;-90
2021/09/15 02:39:42;;;;;;;14.27;11.30;;;21.30;99.90;;;;;;5033077;28;20170;-86
2021/09/15 02:42:08;;;;;;;12.77;10.80;;;21.40;99.90;;;;;;5033821;28;20166;-84
2021/09/15 02:44:34;;;;;;;14.63;11.67;;;21.40;99.90;;;;;;5032083;28;20181;-84
2021/09/15 02:47:00;;;;;;;12.50;11.20;;;21.50;99.90;;;;;;5033298;28;20204;-85
2021/09/15 02:49:27;;;;;;;13.53;11.13;;;21.30;99.90;;;;;;5032068;28;20173;-84
2021/09/15 02:51:56;;;;;;;13.90;11.33;;;21.30;99.90;;;;;;5032276;28;20535;-86
2021/09/15 02:54:21;;;;;;;13.73;10.97;;;21.30;99.90;;;;;;5032690;28;20173;-84
2021/09/15 02:56:47;;;;;;;12.70;10.67;;;21.30;99.90;;;;;;5032227;28;20597;-85
2021/09/15 02:59:13;;;;;;;13.80;10.90;;;21.10;99.90;;;;;;5032520;28;20535;-84
2021/09/15 03:01:39;;;;;;;15.57;10.80;;;21.20;99.90;;;;;;5031099;28;20632;-85
2021/09/15 03:04:05;;;;;;;12.23;10.67;;;21.00;99.90;;;;;;5031359;28;20208;-85
2021/09/15 03:06:31;;;;;;;13.57;10.53;;;21.00;99.90;;;;;;5031767;28;20228;-85
2021/09/15 03:08:56;;;;;;;12.07;10.23;;;20.90;99.90;;;;;;5038278;28;20229;-84
2021/09/15 03:11:22;;;;;;;12.07;10.23;;;20.90;99.90;;;;;;5040808;28;20181;-84
2021/09/15 03:13:49;;;;;;;12.57;10.60;;;20.80;99.90;;;;;;5037825;28;20173;-84
2021/09/15 03:16:15;;;;;;;13.60;10.90;;;20.80;99.90;;;;;;5034457;28;20256;-84
2021/09/15 03:18:41;;;;;;;12.40;10.70;;;20.80;99.90;;;;;;5037015;28;20192;-85
2021/09/15 03:21:08;;;;;;;12.33;10.57;;;20.80;99.90;;;;;;5036956;28;20166;-85
2021/09/15 03:23:35;;;;;;;14.37;11.10;;;20.90;99.90;;;;;;5036747;28;20174;-85
2021/09/15 03:26:00;;;;;;;13.60;10.80;;;21.00;99.90;;;;;;5037277;28;20181;-84
2021/09/15 03:28:26;;;;;;;14.83;11.73;;;21.10;99.90;;;;;;5036807;28;20319;-86
2021/09/15 03:30:52;;;;;;;13.37;11.87;;;21.20;99.90;;;;;;5036446;28;20182;-85
2021/09/15 03:33:17;;;;;;;13.67;11.70;;;21.30;99.90;;;;;;5035541;28;20186;-84
2021/09/15 03:35:43;;;;;;;13.87;11.00;;;21.30;99.90;;;;;;5035961;28;20177;-84
2021/09/15 03:38:09;;;;;;;14.37;10.97;;;21.20;99.90;;;;;;5035849;28;20691;-85
2021/09/15 03:40:37;;;;;;;12.23;10.00;;;21.20;99.90;;;;;;5036750;28;20185;-83
2021/09/15 03:43:05;;;;;;;14.27;10.97;;;21.20;99.90;;;;;;5040729;28;20566;-84
2021/09/15 03:45:32;;;;;;;13.00;10.10;;;21.20;99.90;;;;;;5034192;28;20174;-83
2021/09/15 03:47:57;;;;;;;12.30;9.87;;;21.30;99.90;;;;;;5040816;28;20263;-85
2021/09/15 03:50:23;;;;;;;15.10;11.17;;;21.20;99.90;;;;;;5036750;28;20755;-83
2021/09/15 03:52:49;;;;;;;13.83;10.43;;;21.20;99.90;;;;;;5037471;28;20645;-84
2021/09/15 03:55:14;;;;;;;12.43;11.13;;;21.40;99.90;;;;;;5038762;28;20268;-88
2021/09/15 03:57:40;;;;;;;12.07;10.40;;;21.30;99.90;;;;;;5039086;28;20173;-92
2021/09/15 04:00:06;;;;;;;15.07;11.27;;;21.40;99.90;;;;;;5042061;28;20174;-90
2021/09/15 04:02:32;;;;;;;13.63;10.57;;;21.50;99.90;;;;;;5040775;28;20176;-91
2021/09/15 04:04:57;;;;;;;14.27;11.03;;;21.60;99.90;;;;;;5042871;28;20244;-86
2021/09/15 04:07:23;;;;;;;12.97;11.67;;;21.60;99.90;;;;;;5040893;28;20213;-89
2021/09/15 04:09:49;;;;;;;14.17;11.17;;;21.60;99.90;;;;;;5042790;28;20170;-90
2021/09/15 04:12:14;;;;;;;13.13;11.40;;;21.40;99.90;;;;;;5045725;28;20195;-88
2021/09/15 04:14:41;;;;;;;12.00;10.80;;;21.40;99.90;;;;;;5041968;28;20166;-89
2021/09/15 04:17:07;;;;;;;12.47;10.67;;;21.50;99.90;;;;;;5039810;28;20162;-87
2021/09/15 04:19:33;;;;;;;12.10;10.70;;;21.50;99.90;;;;;;5059550;28;20173;-84
2021/09/15 04:21:59;;;;;;;13.20;11.23;;;21.60;99.90;;;;;;5059121;28;20199;-87
2021/09/15 04:31:11;;;;;;;14.83;11.10;;;21.60;99.90;;;;;;5059470;28;20179;-86
2021/09/15 04:32:59;;;;;;;14.67;11.83;;;21.70;99.90;;;;;;5047824;28;20197;-90
2021/09/15 04:35:27;;;;;;;15.53;12.27;;;21.60;99.90;;;;;;5041211;28;20181;-88
2021/09/15 04:37:59;;;;;;;19.80;12.67;;;21.70;99.90;;;;;;5037464;28;20170;-87
2021/09/15 04:40:36;;;;;;;15.43;13.80;;;21.70;99.90;;;;;;5038800;28;20170;-90
2021/09/15 04:43:01;;;;;;;17.47;14.87;;;21.70;99.90;;;;;;5050227;28;20212;-87
2021/09/15 04:45:33;;;;;;;18.80;13.87;;;21.60;99.90;;;;;;5045795;28;20595;-88
2021/09/15 04:47:59;;;;;;;18.77;13.93;;;21.50;99.90;;;;;;5052043;28;20220;-90
2021/09/15 04:50:25;;;;;;;17.27;13.70;;;21.50;99.90;;;;;;5039190;28;20201;-89
2021/09/15 04:52:50;;;;;;;16.00;14.33;;;21.40;99.90;;;;;;5036243;28;20661;-89
2021/09/15 04:55:16;;;;;;;15.37;12.93;;;21.30;99.90;;;;;;5038293;28;20178;-89
2021/09/15 04:57:42;;;;;;;16.63;13.50;;;21.30;99.90;;;;;;5037951;28;20696;-91
2021/09/15 05:00:08;;;;;;;19.13;14.37;;;21.40;99.90;;;;;;5037180;28;20635;-91
2021/09/15 05:02:34;;;;;;;18.03;14.80;;;21.40;99.90;;;;;;5037641;28;20187;-89
2021/09/15 05:04:59;;;;;;;19.93;16.13;;;21.30;99.90;;;;;;5036072;28;20189;-90
2021/09/15 05:07:25;;;;;;;23.33;17.90;;;21.40;99.90;;;;;;5037929;28;20217;-89
2021/09/15 05:09:51;;;;;;;20.40;18.30;;;21.20;99.90;;;;;;5036584;28;20203;-90
2021/09/15 05:12:16;;;;;;;22.00;18.23;;;21.10;99.90;;;;;;5035718;28;20539;-87
2021/09/15 05:14:42;;;;;;;21.80;19.13;;;20.90;99.90;;;;;;5042528;28;20184;-89
2021/09/15 05:17:08;;;;;;;27.23;21.27;;;20.80;99.90;;;;;;5043547;28;20169;-90
2021/09/15 05:19:33;;;;;;;26.37;22.30;;;20.80;99.90;;;;;;5037378;28;20538;-87
2021/09/15 05:21:59;;;;;;;29.60;23.20;;;20.70;99.90;;;;;;5037261;28;20185;-91
2021/09/15 05:24:25;;;;;;;29.17;26.07;;;20.60;99.90;;;;;;5035887;28;20217;-89
2021/09/15 05:26:50;;;;;;;29.67;26.40;;;20.40;99.90;;;;;;5035924;28;20785;-90
2021/09/15 05:29:16;;;;;;;31.10;27.93;;;20.30;99.90;;;;;;5035436;28;20179;-90
2021/09/15 05:31:41;;;;;;;30.77;27.17;;;20.30;99.90;;;;;;5035064;28;20187;-89
2021/09/15 05:34:07;;;;;;;31.20;27.87;;;20.20;99.90;;;;;;5035040;28;20183;-89
2021/09/15 05:36:33;;;;;;;32.03;28.47;;;20.20;99.90;;;;;;5054093;28;20175;-85
2021/09/15 05:38:59;;;;;;;32.67;29.27;;;20.20;99.90;;;;;;5055842;28;20184;-89
2021/09/15 05:41:25;;;;;;;31.07;27.63;;;20.20;99.90;;;;;;5054557;28;20201;-85
2021/09/15 05:43:51;;;;;;;32.23;28.77;;;20.30;99.90;;;;;;5032409;28;20183;-88
2021/09/15 05:46:16;;;;;;;32.77;29.27;;;20.30;99.90;;;;;;5041372;28;20182;-87
2021/09/15 05:48:42;;;;;;;29.30;26.07;;;20.20;99.90;;;;;;5041467;28;20253;-87
2021/09/15 05:51:10;;;;;;;33.07;29.47;;;20.30;99.90;;;;;;5035878;28;20249;-82
2021/09/15 05:53:39;;;;;;;31.40;28.20;;;20.30;99.90;;;;;;5034219;28;20190;-86
2021/09/15 05:56:04;;;;;;;32.90;28.30;;;20.20;99.90;;;;;;5035195;28;20176;-83
2021/09/15 05:58:30;;;;;;;35.20;31.37;;;20.20;99.90;;;;;;5033564;28;21000;-80
2021/09/15 06:00:56;;;;;;;40.73;35.67;;;20.20;99.90;;;;;;5034220;28;20191;-81
2021/09/15 06:03:21;;;;;;;41.33;36.93;;;20.10;99.90;;;;;;5045582;28;20165;-81
2021/09/15 06:05:47;;;;;;;40.00;35.70;;;20.10;99.90;;;;;;5053567;28;20189;-81
2021/09/15 06:08:13;;;;;;;42.07;37.07;;;20.10;99.90;;;;;;5036752;28;20210;-80
2021/09/15 06:10:41;;;;;;;42.60;37.23;;;20.20;99.90;;;;;;5038600;28;20187;-82
2021/09/15 06:13:10;;;;;;;43.77;38.27;;;20.30;99.90;;;;;;5034465;28;20255;-82
2021/09/15 06:15:36;;;;;;;42.57;37.80;;;20.40;99.90;;;;;;5034083;28;20169;-81
2021/09/15 06:18:02;;;;;;;48.37;39.77;;;20.40;99.90;;;;;;5033753;28;20166;-85
2021/09/15 06:20:28;;;;;;;56.87;43.90;;;20.40;99.90;;;;;;5033528;28;20167;-82
2021/09/15 06:22:53;;;;;;;54.33;43.33;;;20.40;99.90;;;;;;5032331;28;20175;-83
2021/09/15 06:25:20;;;;;;;60.27;46.03;;;20.30;99.90;;;;;;5033180;28;20178;-83
2021/09/15 06:27:46;;;;;;;61.70;44.00;;;20.10;99.90;;;;;;5017271;28;20207;-88
2021/09/15 06:30:12;;;;;;;59.67;44.80;;;20.10;99.90;;;;;;5037460;28;20188;-81
2021/09/15 06:32:39;;;;;;;52.63;42.07;;;20.10;99.90;;;;;;5032888;28;20252;-84
2021/09/15 06:35:05;;;;;;;56.23;42.10;;;20.10;99.90;;;;;;5042537;28;20206;-87
2021/09/15 06:37:31;;;;;;;49.73;39.97;;;20.20;99.90;;;;;;5033854;28;20501;-86
2021/09/15 06:39:57;;;;;;;56.07;40.30;;;20.10;99.90;;;;;;5034375;28;20362;-85
2021/09/15 06:42:23;;;;;;;50.53;40.63;;;19.90;99.90;;;;;;5035661;28;20191;-88
2021/09/15 06:44:50;;;;;;;49.37;38.77;;;19.90;99.90;;;;;;5036103;28;20179;-90
2021/09/15 06:47:16;;;;;;;51.67;38.17;;;19.80;99.90;;;;;;5032692;28;20230;-86
2021/09/15 06:49:41;;;;;;;53.97;41.40;;;19.80;99.90;;;;;;5033230;28;20666;-89
2021/09/15 06:52:08;;;;;;;57.30;41.57;;;19.80;99.90;;;;;;5033720;28;20589;-87
2021/09/15 06:54:36;;;;;;;51.33;39.70;;;19.90;99.90;;;;;;5049506;28;20681;-88
2021/09/15 06:57:05;;;;;;;58.60;43.73;;;20.00;99.90;;;;;;5037173;28;20183;-88
2021/09/15 06:59:31;;;;;;;63.97;46.40;;;19.90;99.90;;;;;;5026405;28;20258;-86
2021/09/15 07:01:56;;;;;;;61.27;45.47;;;20.00;99.90;;;;;;5033212;28;20187;-89
2021/09/15 07:04:22;;;;;;;70.30;49.60;;;19.90;99.90;;;;;;5032437;28;20221;-88
2021/09/15 07:06:48;;;;;;;71.27;49.20;;;20.10;99.90;;;;;;5033454;28;20693;-87
2021/09/15 07:09:13;;;;;;;69.13;50.37;;;20.00;99.90;;;;;;5033546;28;20186;-86
2021/09/15 07:11:40;;;;;;;70.80;51.30;;;20.00;99.90;;;;;;5033455;28;20186;-90
2021/09/15 07:14:05;;;;;;;68.07;49.87;;;20.00;99.90;;;;;;5032563;28;20618;-86
2021/09/15 07:16:32;;;;;;;66.17;48.70;;;20.00;99.90;;;;;;5035175;28;20182;-88
2021/09/15 07:18:59;;;;;;;66.33;48.33;;;19.90;99.90;;;;;;5019543;28;20164;-90
2021/09/15 07:21:25;;;;;;;66.90;50.27;;;19.90;99.90;;;;;;5037681;28;20619;-92
2021/09/15 07:23:51;;;;;;;68.30;50.67;;;19.90;99.90;;;;;;5036382;28;20180;-90
2021/09/15 07:26:17;;;;;;;63.63;48.67;;;19.80;99.90;;;;;;5034916;28;20190;-88
2021/09/15 07:28:42;;;;;;;66.47;50.10;;;19.70;99.90;;;;;;5017622;28;20294;-89
2021/09/15 07:31:10;;;;;;;68.67;51.70;;;19.80;99.90;;;;;;5039892;28;20165;-89
2021/09/15 07:33:37;;;;;;;66.73;49.17;;;19.90;99.90;;;;;;5034258;28;20180;-89
2021/09/15 07:36:04;;;;;;;63.47;50.23;;;19.80;99.90;;;;;;5036168;28;20199;-90
2021/09/15 07:38:30;;;;;;;64.37;51.10;;;19.70;99.90;;;;;;5034734;28;20178;-89
2021/09/15 07:40:57;;;;;;;69.67;50.60;;;19.80;99.90;;;;;;5036016;28;20175;-93
2021/09/15 07:43:23;;;;;;;69.93;53.13;;;19.70;99.90;;;;;;5035804;28;20217;-88
2021/09/15 07:45:49;;;;;;;65.70;51.80;;;19.80;99.90;;;;;;5034768;28;20186;-89
2021/09/15 07:48:15;;;;;;;65.27;51.77;;;19.70;99.90;;;;;;5044659;28;20286;-90
2021/09/15 07:50:41;;;;;;;67.63;50.43;;;19.90;99.90;;;;;;5043536;28;20196;-87
2021/09/15 07:53:07;;;;;;;65.83;49.30;;;20.00;99.90;;;;;;5035194;28;20236;-88
2021/09/15 07:55:32;;;;;;;62.87;48.83;;;20.10;99.90;;;;;;5035133;28;20282;-89
2021/09/15 07:57:58;;;;;;;60.10;48.33;;;20.10;99.90;;;;;;5034995;28;20530;-89
2021/09/15 08:00:24;;;;;;;60.43;48.97;;;20.20;99.90;;;;;;5036166;28;20267;-90
2021/09/15 08:02:52;;;;;;;58.27;48.10;;;20.20;99.90;;;;;;5039447;28;20190;-90
2021/09/15 08:05:22;;;;;;;51.80;44.00;;;20.30;99.90;;;;;;5041268;28;20191;-90
2021/09/15 08:07:49;;;;;;;55.47;44.63;;;20.20;99.90;;;;;;5041076;28;20785;-91
2021/09/15 08:10:15;;;;;;;54.50;46.27;;;20.20;99.90;;;;;;5041838;28;20171;-91
2021/09/15 08:12:41;;;;;;;53.73;42.03;;;20.10;99.90;;;;;;5041890;28;20267;-91
2021/09/15 08:15:07;;;;;;;48.97;41.70;;;20.20;99.90;;;;;;5026564;28;20188;-91
2021/09/15 08:17:33;;;;;;;53.30;42.80;;;20.10;99.90;;;;;;5044757;28;20266;-85
2021/09/15 08:19:59;;;;;;;47.03;41.43;;;20.20;99.90;;;;;;5046352;28;20255;-84
2021/09/15 08:22:25;;;;;;;50.83;40.97;;;20.30;99.90;;;;;;5040097;28;20253;-84
2021/09/15 08:24:51;;;;;;;51.73;43.03;;;20.30;99.90;;;;;;5038320;28;20173;-89
2021/09/15 08:27:17;;;;;;;55.07;43.77;;;20.40;99.90;;;;;;5037094;28;20257;-82
2021/09/15 08:29:42;;;;;;;55.23;43.53;;;20.50;99.90;;;;;;5037141;28;20175;-83
2021/09/15 08:32:08;;;;;;;49.20;40.50;;;20.40;99.90;;;;;;5036717;28;20201;-80
2021/09/15 08:34:35;;;;;;;43.27;36.77;;;20.40;99.90;;;;;;5033570;28;20178;-76
2021/09/15 08:37:00;;;;;;;45.90;36.87;;;20.40;99.90;;;;;;5034744;28;20225;-76
2021/09/15 08:39:26;;;;;;;39.33;33.87;;;20.40;99.90;;;;;;5034244;28;20167;-76
2021/09/15 08:41:53;;;;;;;35.80;32.00;;;20.40;99.90;;;;;;5034013;28;20183;-78
2021/09/15 08:44:19;;;;;;;30.43;27.07;;;20.30;99.90;;;;;;5033752;28;20169;-75
2021/09/15 08:46:45;;;;;;;30.30;26.63;;;20.30;99.90;;;;;;5034329;28;20310;-80
2021/09/15 08:49:11;;;;;;;32.30;27.53;;;20.10;99.90;;;;;;5035119;28;20174;-80
2021/09/15 08:51:37;;;;;;;34.33;29.83;;;20.10;99.90;;;;;;5035009;28;20214;-80
2021/09/15 08:54:03;;;;;;;38.97;32.27;;;20.20;99.90;;;;;;5034147;28;20660;-80
2021/09/15 08:56:28;;;;;;;40.50;34.30;;;20.20;99.90;;;;;;5033044;28;20793;-79
2021/09/15 08:58:54;;;;;;;40.07;34.10;;;20.60;99.90;;;;;;5034635;28;20239;-80
2021/09/15 09:01:23;;;;;;;42.83;35.93;;;20.60;99.90;;;;;;5034994;28;20210;-81
2021/09/15 09:03:55;;;;;;;45.17;38.23;;;20.70;99.90;;;;;;5035438;28;20674;-79
2021/09/15 09:06:25;;;;;;;42.07;37.60;;;20.70;99.90;;;;;;5034288;28;20184;-81
2021/09/15 09:08:58;;;;;;;47.30;39.93;;;20.70;99.90;;;;;;5033992;28;20275;-85
2021/09/15 09:11:26;;;;;;;48.17;39.77;;;20.70;99.90;;;;;;5035656;28;20184;-86
2021/09/15 09:14:00;;;;;;;42.00;36.13;;;20.60;99.90;;;;;;5033415;28;20185;-85
2021/09/15 09:16:50;;;;;;;43.70;37.80;;;20.50;99.90;;;;;;5034793;28;20272;-77
2021/09/15 09:19:27;;;;;;;42.13;35.17;;;20.50;99.90;;;;;;5056656;28;20188;-85
2021/09/15 09:21:53;;;;;;;41.93;34.33;;;20.50;99.90;;;;;;5052561;28;20181;-84
2021/09/15 09:24:25;;;;;;;40.47;34.73;;;20.50;99.90;;;;;;5053921;28;20201;-88
2021/09/15 09:26:58;;;;;;;41.43;34.70;;;20.30;99.90;;;;;;5041503;28;20204;-88
2021/09/15 09:29:32;;;;;;;46.30;36.70;;;20.20;99.90;;;;;;5040580;28;20202;-90
2021/09/15 09:32:08;;;;;;;42.90;35.57;;;20.10;99.90;;;;;;5039359;28;20171;-90
2021/09/15 09:34:44;;;;;;;44.07;35.27;;;20.10;99.90;;;;;;5036604;28;20629;-88
2021/09/15 09:37:17;;;;;;;41.40;34.37;;;20.00;99.90;;;;;;5034036;28;20264;-86
2021/09/15 09:39:48;;;;;;;37.53;33.40;;;20.00;99.90;;;;;;5035398;28;20170;-83
2021/09/15 09:42:26;;;;;;;40.10;33.13;;;20.10;99.90;;;;;;5040657;28;20178;-81
2021/09/15 09:45:04;;;;;;;39.57;33.00;;;20.20;99.90;;;;;;5089778;28;20166;-80
2021/09/15 09:47:31;;;;;;;39.10;32.90;;;20.10;99.90;;;;;;5049976;28;20215;-80
2021/09/15 09:50:06;;;;;;;28.17;25.20;;;20.30;99.90;;;;;;5046207;28;20210;-82
2021/09/15 09:52:50;;;;;;;23.70;21.17;;;20.20;99.90;;;;;;5041734;28;20177;-84
2021/09/15 09:55:19;;;;;;;20.60;18.57;;;20.10;99.90;;;;;;5037768;28;20167;-81
2021/09/15 09:57:48;;;;;;;20.43;18.23;;;20.00;99.90;;;;;;5044640;28;20170;-82
2021/09/15 10:00:16;;;;;;;19.67;17.67;;;20.10;99.70;;;;;;5049159;28;20175;-87
2021/09/15 10:02:42;;;;;;;20.23;18.20;;;20.00;99.90;;;;;;5040906;28;20173;-85
2021/09/15 10:05:10;;;;;;;21.60;17.77;;;20.30;99.90;;;;;;5035669;28;20316;-86
2021/09/15 10:07:37;;;;;;;22.33;18.83;;;20.50;98.10;;;;;;5032497;28;20301;-85
2021/09/15 10:10:04;;;;;;;20.57;18.37;;;20.50;97.20;;;;;;5045342;28;20270;-83
2021/09/15 10:12:31;;;;;;;18.03;16.13;;;20.70;96.70;;;;;;5055014;28;20179;-87
2021/09/15 10:15:00;;;;;;;18.10;16.20;;;20.70;95.90;;;;;;5051799;28;20204;-84
2021/09/15 10:17:30;;;;;;;15.13;13.10;;;20.70;95.00;;;;;;5053096;28;20181;-84
2021/09/15 10:19:57;;;;;;;14.17;12.77;;;20.70;93.60;;;;;;5035786;28;20685;-82
2021/09/15 10:22:31;;;;;;;18.87;13.63;;;20.70;94.80;;;;;;5032811;28;20242;-83
2021/09/15 10:25:02;;;;;;;13.57;11.73;;;20.60;95.60;;;;;;5032061;28;20256;-82
2021/09/15 10:27:31;;;;;;;13.17;11.87;;;20.70;95.40;;;;;;5032234;28;20229;-83
2021/09/15 10:30:16;;;;;;;13.43;12.00;;;20.50;94.60;;;;;;5046790;28;20232;-84
2021/09/15 10:32:46;;;;;;;14.23;11.50;;;20.50;94.30;;;;;;5046990;28;20186;-82
2021/09/15 10:35:13;;;;;;;13.23;10.27;;;20.30;94.00;;;;;;5039144;28;20168;-84
2021/09/15 10:37:39;;;;;;;14.77;12.23;;;20.20;93.30;;;;;;5024054;28;20182;-84
2021/09/15 10:40:08;;;;;;;15.63;14.07;;;20.10;93.60;;;;;;5033194;28;20259;-84
2021/09/15 10:42:47;;;;;;;17.23;15.43;;;20.40;92.60;;;;;;5032305;28;20236;-84
2021/09/15 10:45:25;;;;;;;19.43;17.07;;;20.60;92.30;;;;;;5033799;28;20198;-84
2021/09/15 10:47:54;;;;;;;19.13;17.10;;;20.80;91.50;;;;;;5035359;28;20245;-84
2021/09/15 10:50:29;;;;;;;17.00;15.20;;;20.90;90.90;;;;;;5034259;28;20215;-83
2021/09/15 10:53:16;;;;;;;17.10;15.30;;;20.80;91.00;;;;;;5032637;28;20426;-82
2021/09/15 10:55:50;;;;;;;16.77;14.93;;;20.90;90.90;;;;;;5040453;28;20199;-82
2021/09/15 10:58:24;;;;;;;15.70;13.00;;;20.90;91.10;;;;;;5036894;28;20187;-82
2021/09/15 11:00:58;;;;;;;13.73;12.43;;;20.80;90.70;;;;;;5036977;28;20162;-82
2021/09/15 11:03:49;;;;;;;15.27;13.33;;;20.80;91.60;;;;;;5034207;28;20240;-83
2021/09/15 11:06:17;;;;;;;16.50;14.40;;;20.70;91.20;;;;;;5032258;28;20208;-83
2021/09/15 11:08:48;;;;;;;18.67;15.63;;;20.70;90.50;;;;;;5033088;28;20234;-84
2021/09/15 11:11:22;;;;;;;17.80;16.03;;;20.70;90.10;;;;;;5032448;28;20530;-84
2021/09/15 11:14:00;;;;;;;18.53;16.17;;;20.80;90.10;;;;;;5031490;28;20669;-84
2021/09/15 11:16:32;;;;;;;19.07;15.90;;;21.10;86.50;;;;;;5031219;28;20185;-84
2021/09/15 11:19:01;;;;;;;17.17;15.47;;;21.10;82.90;;;;;;5033409;28;20173;-84
2021/09/15 11:21:29;;;;;;;16.57;14.87;;;21.20;86.80;;;;;;5047386;28;20237;-83
2021/09/15 11:24:09;;;;;;;17.13;15.07;;;21.40;82.10;;;;;;5013930;28;20264;-87
2021/09/15 11:26:53;;;;;;;16.93;14.57;;;21.20;81.70;;;;;;5033189;28;20182;-86
2021/09/15 11:29:37;;;;;;;16.77;14.90;;;21.30;84.30;;;;;;5078381;28;20195;-84
2021/09/15 11:32:07;;;;;;;14.13;12.73;;;21.40;83.40;;;;;;5052061;28;20192;-83
2021/09/15 11:34:38;;;;;;;13.97;12.57;;;21.30;84.20;;;;;;5052671;28;20169;-82
2021/09/15 11:37:03;;;;;;;13.10;11.60;;;21.20;85.40;;;;;;5057780;28;20195;-82
2021/09/15 11:39:29;;;;;;;11.73;10.03;;;20.80;89.00;;;;;;5056544;28;20192;-84
2021/09/15 11:42:03;;;;;;;9.67;8.37;;;20.90;88.20;;;;;;5051632;28;20164;-81
2021/09/15 11:44:37;;;;;;;10.17;7.30;;;21.10;82.80;;;;;;5052733;28;20172;-82
2021/09/15 11:47:05;;;;;;;8.93;7.00;;;21.20;78.30;;;;;;5051452;28;20211;-83
2021/09/15 11:49:37;;;;;;;7.63;6.37;;;21.20;79.50;;;;;;5049036;28;20201;-84
2021/09/15 11:52:03;;;;;;;10.57;7.07;;;21.30;81.10;;;;;;5049156;28;20172;-84
2021/09/15 11:54:29;;;;;;;7.13;6.20;;;21.20;80.70;;;;;;5072980;28;20182;-85
2021/09/15 11:57:13;;;;;;;8.27;6.60;;;21.20;81.40;;;;;;5056548;28;20656;-85
2021/09/15 11:59:41;;;;;;;9.47;6.27;;;21.20;82.50;;;;;;5040659;28;20269;-86
2021/09/15 12:02:11;;;;;;;6.53;5.93;;;21.40;81.60;;;;;;5043699;28;20637;-85
2021/09/15 12:04:39;;;;;;;7.33;5.37;;;21.40;80.10;;;;;;5038262;28;20209;-84
2021/09/15 12:07:05;;;;;;;8.07;6.13;;;21.70;79.60;;;;;;5051128;28;20214;-84
2021/09/15 12:09:35;;;;;;;9.73;6.17;;;21.90;73.50;;;;;;5054840;28;20193;-82
2021/09/15 12:12:06;;;;;;;10.30;7.30;;;21.80;73.30;;;;;;5045932;28;20216;-85
2021/09/15 12:14:35;;;;;;;9.17;6.17;;;21.90;74.60;;;;;;5043702;28;20547;-85
2021/09/15 12:17:04;;;;;;;8.40;5.70;;;21.80;74.10;;;;;;5043936;28;20181;-84
2021/09/15 12:19:33;;;;;;;8.43;5.63;;;21.70;76.20;;;;;;5039797;28;20212;-80
2021/09/15 12:21:59;;;;;;;10.03;6.13;;;21.60;76.40;;;;;;5035394;28;20266;-83
2021/09/15 12:24:26;;;;;;;9.33;6.03;;;21.50;78.10;;;;;;5038266;28;20184;-81
2021/09/15 12:26:52;;;;;;;12.30;8.40;;;21.50;80.30;;;;;;5036247;28;20176;-80
2021/09/15 12:29:21;;;;;;;8.97;7.10;;;21.40;82.00;;;;;;5035658;28;20207;-82
2021/09/15 12:31:50;;;;;;;9.43;6.80;;;21.10;85.20;;;;;;5035771;28;20179;-83
2021/09/15 12:34:31;;;;;;;10.57;7.40;;;21.20;86.80;;;;;;5036836;28;20175;-82
2021/09/15 12:37:18;;;;;;;12.93;7.30;;;21.40;85.00;;;;;;5064532;28;20192;-83
2021/09/15 12:39:47;;;;;;;9.10;6.97;;;21.50;81.80;;;;;;5070181;28;20637;-82
2021/09/15 12:42:17;;;;;;;7.87;6.90;;;21.60;80.90;;;;;;5068986;28;20659;-82